Time;durP1;ratioP1;P1;durP2;ratioP2;P2;SDS_P1;SDS_P2;PMS_P1;PMS_P2;Temp;Humidity;BMP_temperature;BMP_pressure;BME280_temperature;BME280_humidity;BME280_pressure;Samples;Min_cycle;Max_cycle;Signal;HPM_P1;HPM_P2
2024/04/07 04:02:30;;;;;;;2.20;1.63;;;16.10;88.80;;;;;;5315088;23;20550;-94
2024/04/07 04:05:21;;;;;;;2.00;1.10;;;16.10;88.70;;;;;;4964125;28;20431;-86
2024/04/07 04:08:21;;;;;;;1.30;1.20;;;16.20;88.50;;;;;;4958240;28;20998;-93
2024/04/07 04:10:46;;;;;;;2.73;1.27;;;16.20;88.80;;;;;;4975748;23;20542;-64
2024/04/07 04:13:12;;;;;;;1.33;1.10;;;16.00;89.00;;;;;;4980178;28;20898;-64
2024/04/07 04:15:38;;;;;;;2.73;1.87;;;16.00;88.80;;;;;;4978923;28;20182;-64
2024/04/07 04:18:06;;;;;;;1.20;1.10;;;16.00;88.70;;;;;;5003021;28;20923;-64
2024/04/07 04:20:32;;;;;;;1.60;1.50;;;16.10;88.50;;;;;;4975641;28;20207;-64
2024/04/07 04:22:57;;;;;;;2.13;1.93;;;16.00;88.90;;;;;;4960286;28;20425;-64
2024/04/07 04:25:25;;;;;;;1.53;1.43;;;16.00;88.90;;;;;;4971154;28;20429;-64
2024/04/07 04:27:51;;;;;;;2.30;2.10;;;15.90;89.50;;;;;;4967044;28;20188;-64
2024/04/07 04:30:16;;;;;;;2.47;1.40;;;15.80;89.50;;;;;;4967752;28;20427;-65
2024/04/07 04:32:42;;;;;;;1.70;1.67;;;15.90;89.20;;;;;;4957282;28;20210;-64
2024/04/07 04:35:10;;;;;;;1.30;1.20;;;16.00;88.80;;;;;;4974366;28;20183;-64
2024/04/07 04:37:35;;;;;;;2.93;1.30;;;16.10;88.40;;;;;;4951177;28;20231;-64
2024/04/07 04:40:01;;;;;;;1.43;1.33;;;16.10;88.60;;;;;;4955131;28;20426;-64
2024/04/07 04:42:26;;;;;;;2.17;2.03;;;16.10;88.60;;;;;;4982485;28;20197;-64
2024/04/07 04:44:52;;;;;;;1.30;1.17;;;16.10;88.30;;;;;;4973474;28;20187;-64
2024/04/07 04:47:17;;;;;;;1.20;1.00;;;16.30;88.00;;;;;;4960763;28;20191;-64
2024/04/07 04:49:43;;;;;;;1.00;0.90;;;16.30;87.90;;;;;;4976820;28;20213;-63
2024/04/07 04:52:08;;;;;;;0.87;0.80;;;16.30;87.70;;;;;;4973573;28;20233;-65
2024/04/07 04:54:35;;;;;;;1.97;1.87;;;16.50;87.20;;;;;;4977612;28;20237;-64
2024/04/07 04:57:01;;;;;;;1.27;1.17;;;16.50;87.70;;;;;;4978790;28;20200;-64
2024/04/07 04:59:26;;;;;;;1.20;1.10;;;16.50;87.70;;;;;;4962893;28;20904;-64
2024/04/07 05:01:52;;;;;;;1.27;1.20;;;16.60;87.30;;;;;;4976267;28;20216;-64
2024/04/07 05:04:18;;;;;;;1.20;1.10;;;16.60;87.40;;;;;;4969253;28;20197;-64
2024/04/07 05:06:43;;;;;;;1.27;1.17;;;16.70;87.10;;;;;;4971326;28;20267;-64
2024/04/07 05:09:09;;;;;;;7.93;1.50;;;16.90;86.80;;;;;;4972620;28;20516;-64
2024/04/07 05:11:35;;;;;;;1.27;1.23;;;16.90;86.80;;;;;;4973486;28;20239;-64
2024/04/07 05:14:00;;;;;;;1.40;1.17;;;16.90;86.90;;;;;;4967158;28;20561;-64
2024/04/07 05:16:26;;;;;;;1.00;0.90;;;17.00;86.60;;;;;;4958017;28;20174;-64
2024/04/07 05:18:51;;;;;;;1.20;1.20;;;17.10;86.00;;;;;;4974698;28;20586;-64
2024/04/07 05:21:17;;;;;;;1.50;1.40;;;17.20;86.00;;;;;;4978105;28;20210;-64
2024/04/07 05:23:44;;;;;;;1.27;1.00;;;17.30;85.60;;;;;;4970459;28;20178;-64
2024/04/07 05:26:13;;;;;;;1.47;1.37;;;17.40;85.90;;;;;;4970292;28;20634;-65
2024/04/07 05:28:40;;;;;;;1.30;1.20;;;17.40;86.30;;;;;;4965082;28;20430;-64
2024/04/07 05:31:15;;;;;;;1.07;1.03;;;17.40;86.10;;;;;;4967160;28;20441;-64
2024/04/07 05:33:50;;;;;;;2.50;1.10;;;17.50;86.10;;;;;;4970450;28;20428;-64
2024/04/07 05:36:17;;;;;;;9.83;1.27;;;17.60;85.70;;;;;;4978070;28;20796;-64
2024/04/07 05:38:45;;;;;;;0.87;0.80;;;17.70;85.40;;;;;;4973756;28;20432;-64
2024/04/07 05:41:11;;;;;;;5.03;1.27;;;17.80;85.40;;;;;;4962369;28;20575;-63
2024/04/07 05:43:37;;;;;;;3.47;2.60;;;17.90;85.60;;;;;;4965536;28;20422;-64
2024/04/07 05:46:08;;;;;;;0.70;0.70;;;17.90;85.10;;;;;;4966466;28;20171;-64
2024/04/07 05:48:34;;;;;;;2.60;0.83;;;17.90;85.10;;;;;;4961165;28;20429;-64
2024/04/07 05:51:00;;;;;;;2.47;1.20;;;17.80;84.80;;;;;;4977620;28;20471;-64
2024/04/07 05:53:26;;;;;;;2.10;1.60;;;17.80;85.60;;;;;;4958917;28;20916;-64
2024/04/07 05:55:51;;;;;;;1.20;1.10;;;17.80;85.60;;;;;;4964846;28;20563;-64
2024/04/07 05:58:17;;;;;;;1.77;1.33;;;17.80;84.90;;;;;;4965335;28;20179;-64
2024/04/07 06:00:43;;;;;;;1.57;1.50;;;17.70;85.10;;;;;;4964913;28;20199;-64
2024/04/07 06:03:08;;;;;;;1.17;1.10;;;17.80;85.40;;;;;;4983639;28;20189;-64
2024/04/07 06:05:39;;;;;;;1.10;1.00;;;17.70;85.10;;;;;;4979584;28;20181;-64
2024/04/07 06:08:05;;;;;;;1.10;1.00;;;17.80;85.10;;;;;;4972597;28;20253;-64
2024/04/07 06:10:31;;;;;;;0.90;0.90;;;17.90;84.30;;;;;;4961746;28;20821;-65
2024/04/07 06:12:56;;;;;;;1.47;1.10;;;18.00;83.80;;;;;;4964625;28;20999;-64
2024/04/07 06:15:22;;;;;;;1.53;0.90;;;18.10;84.10;;;;;;4968271;28;20179;-64
2024/04/07 06:17:49;;;;;;;1.00;0.90;;;18.20;84.10;;;;;;4963924;28;20214;-64
2024/04/07 06:20:15;;;;;;;1.00;0.90;;;18.30;83.60;;;;;;4951432;28;20599;-65
2024/04/07 06:22:40;;;;;;;0.97;0.93;;;18.50;82.70;;;;;;4959864;28;20429;-64
2024/04/07 06:25:06;;;;;;;1.13;1.13;;;18.60;82.80;;;;;;4961037;28;20433;-65
2024/04/07 06:27:32;;;;;;;1.00;0.90;;;18.70;83.30;;;;;;4960835;28;20189;-64
2024/04/07 06:30:02;;;;;;;1.20;1.10;;;18.80;82.90;;;;;;4952925;28;20194;-65
2024/04/07 06:32:28;;;;;;;1.30;1.20;;;18.80;82.80;;;;;;4957635;28;20473;-65
2024/04/07 06:34:55;;;;;;;1.00;0.90;;;18.90;81.30;;;;;;4956463;28;20508;-65
2024/04/07 06:37:21;;;;;;;0.90;0.80;;;19.00;81.70;;;;;;4965996;28;20953;-65
2024/04/07 06:39:47;;;;;;;1.00;0.90;;;19.10;80.90;;;;;;4963312;28;20417;-65
2024/04/07 06:42:20;;;;;;;1.13;1.03;;;19.20;80.50;;;;;;4959791;28;20218;-65
2024/04/07 06:44:45;;;;;;;0.97;0.87;;;19.40;80.50;;;;;;4955103;28;20336;-65
2024/04/07 06:47:11;;;;;;;1.97;1.87;;;19.50;80.10;;;;;;4959594;28;20990;-65
2024/04/07 06:49:36;;;;;;;1.90;1.33;;;19.60;79.30;;;;;;4957323;28;20189;-65
2024/04/07 06:52:03;;;;;;;1.10;1.00;;;19.70;79.20;;;;;;4949682;28;20590;-65
2024/04/07 06:54:28;;;;;;;1.17;0.90;;;19.80;79.80;;;;;;4950316;28;20179;-65
2024/04/07 06:56:54;;;;;;;0.70;0.70;;;19.80;79.60;;;;;;4949743;28;20419;-65
2024/04/07 06:59:19;;;;;;;4.97;1.10;;;19.90;78.60;;;;;;4948123;28;20171;-65
2024/04/07 07:01:45;;;;;;;0.97;0.87;;;19.90;77.90;;;;;;4949735;28;20254;-65
2024/04/07 07:04:10;;;;;;;1.00;0.90;;;20.00;78.10;;;;;;4956087;28;20285;-66
2024/04/07 07:06:36;;;;;;;1.07;0.97;;;20.00;77.90;;;;;;4950062;28;20431;-65
2024/04/07 07:09:02;;;;;;;1.40;1.33;;;20.00;78.10;;;;;;4958725;28;20690;-65
2024/04/07 07:11:27;;;;;;;0.90;0.90;;;20.10;77.80;;;;;;4961792;28;20629;-65
2024/04/07 07:13:53;;;;;;;0.90;0.90;;;20.10;78.80;;;;;;4972442;28;20430;-64
2024/04/07 07:16:19;;;;;;;1.30;1.20;;;20.10;78.20;;;;;;4972475;28;20186;-64
2024/04/07 07:18:44;;;;;;;0.90;0.80;;;20.20;78.30;;;;;;4967729;28;20436;-65
2024/04/07 07:21:10;;;;;;;1.40;1.10;;;20.20;78.00;;;;;;4977742;28;20257;-64
2024/04/07 07:23:36;;;;;;;0.97;0.90;;;20.30;78.20;;;;;;4972607;28;20277;-65
2024/04/07 07:26:04;;;;;;;1.47;1.30;;;20.40;78.20;;;;;;4972532;28;20181;-65
2024/04/07 07:28:30;;;;;;;7.20;1.80;;;20.50;78.00;;;;;;4972199;28;20190;-65
2024/04/07 07:30:56;;;;;;;1.53;0.90;;;20.70;78.00;;;;;;4966125;28;20450;-65
2024/04/07 07:33:22;;;;;;;0.90;0.80;;;20.80;78.00;;;;;;4969018;28;20622;-65
2024/04/07 07:35:50;;;;;;;1.03;0.93;;;20.90;77.80;;;;;;4971042;28;20514;-65
2024/04/07 07:38:16;;;;;;;1.17;1.00;;;21.00;77.10;;;;;;4971347;28;20646;-65
2024/04/07 07:40:42;;;;;;;1.10;1.00;;;21.10;77.90;;;;;;4977925;28;20515;-65
2024/04/07 07:43:07;;;;;;;23.77;1.70;;;21.10;77.30;;;;;;4970594;28;20221;-64
2024/04/07 07:45:33;;;;;;;1.20;1.10;;;21.20;77.20;;;;;;4974815;28;20182;-66
2024/04/07 07:47:58;;;;;;;1.47;1.47;;;21.30;77.40;;;;;;4977406;28;20186;-65
2024/04/07 07:50:24;;;;;;;1.07;1.00;;;21.40;77.10;;;;;;4978186;28;20252;-65
2024/04/07 07:52:49;;;;;;;0.93;0.83;;;21.50;77.60;;;;;;4965880;28;20220;-65
2024/04/07 07:55:15;;;;;;;1.17;0.97;;;21.60;77.10;;;;;;4963269;28;20549;-65
2024/04/07 07:57:41;;;;;;;1.67;0.93;;;21.80;77.70;;;;;;4959502;28;20179;-66
2024/04/07 08:00:11;;;;;;;3.27;1.10;;;21.90;76.20;;;;;;4959745;28;20430;-65
2024/04/07 08:02:37;;;;;;;1.30;1.30;;;22.10;76.10;;;;;;4968627;28;20643;-65
2024/04/07 08:05:04;;;;;;;1.00;0.90;;;22.20;76.00;;;;;;4965632;28;20564;-65
2024/04/07 08:07:29;;;;;;;0.70;0.70;;;22.40;74.30;;;;;;4965233;28;20430;-64
2024/04/07 08:09:55;;;;;;;1.00;0.93;;;22.40;76.30;;;;;;4970180;28;20444;-65
2024/04/07 08:12:20;;;;;;;1.30;1.20;;;22.50;74.30;;;;;;4970172;28;20728;-65
2024/04/07 08:14:46;;;;;;;1.10;1.10;;;22.70;74.40;;;;;;4976030;28;20550;-65
2024/04/07 08:17:11;;;;;;;2.57;1.77;;;22.90;74.80;;;;;;4981979;28;20186;-65
2024/04/07 08:19:37;;;;;;;1.47;0.90;;;23.00;74.60;;;;;;4963194;28;20609;-65
2024/04/07 08:22:03;;;;;;;0.90;0.80;;;23.10;74.00;;;;;;4975093;28;20202;-65
2024/04/07 08:24:28;;;;;;;1.40;1.33;;;23.20;73.20;;;;;;4980285;28;20717;-66
2024/04/07 08:26:54;;;;;;;2.07;0.90;;;23.30;73.20;;;;;;4977476;28;20190;-66
2024/04/07 08:29:19;;;;;;;1.13;1.00;;;23.30;72.40;;;;;;4987025;28;20265;-65
2024/04/07 08:31:45;;;;;;;0.90;0.90;;;23.30;73.10;;;;;;4971301;28;20406;-66
2024/04/07 08:34:10;;;;;;;1.17;1.07;;;23.40;73.30;;;;;;4963685;28;20229;-65
2024/04/07 08:36:36;;;;;;;1.83;1.73;;;23.30;72.80;;;;;;4961438;28;20205;-65
2024/04/07 08:39:02;;;;;;;2.00;1.10;;;23.30;72.70;;;;;;4954528;28;20175;-65
2024/04/07 08:41:28;;;;;;;1.10;1.00;;;23.20;73.00;;;;;;4961418;28;20257;-65
2024/04/07 08:43:54;;;;;;;0.77;0.73;;;23.30;72.30;;;;;;4968444;28;20193;-66
2024/04/07 08:46:21;;;;;;;2.10;1.77;;;23.30;72.80;;;;;;4965581;28;20435;-65
2024/04/07 08:48:51;;;;;;;1.17;1.07;;;23.50;72.90;;;;;;4970754;28;20418;-66
2024/04/07 08:51:17;;;;;;;1.87;1.10;;;23.70;73.30;;;;;;4971005;28;20438;-66
2024/04/07 08:53:44;;;;;;;0.90;0.90;;;23.80;72.40;;;;;;4973323;28;20803;-66
2024/04/07 08:56:13;;;;;;;1.10;1.00;;;23.80;71.90;;;;;;4975019;28;20531;-66
2024/04/07 08:58:40;;;;;;;5.50;1.27;;;23.90;72.70;;;;;;4958163;28;20431;-65
2024/04/07 09:01:11;;;;;;;1.10;1.07;;;24.00;72.30;;;;;;4958020;28;20437;-65
2024/04/07 09:03:37;;;;;;;0.90;0.80;;;24.00;72.50;;;;;;4961996;28;20441;-65
2024/04/07 09:06:03;;;;;;;1.43;1.23;;;24.00;71.10;;;;;;4964406;28;20415;-66
2024/04/07 09:08:30;;;;;;;1.50;1.30;;;23.90;71.20;;;;;;4968966;28;20430;-67
2024/04/07 09:10:56;;;;;;;1.60;1.40;;;24.10;71.70;;;;;;4976422;28;20451;-66
2024/04/07 09:13:21;;;;;;;1.63;1.53;;;24.20;70.90;;;;;;4970413;28;20561;-66
2024/04/07 09:15:47;;;;;;;1.60;1.40;;;24.20;70.20;;;;;;4968782;28;20174;-66
2024/04/07 09:18:12;;;;;;;1.60;1.50;;;24.20;70.80;;;;;;4970383;28;20674;-66
2024/04/07 09:20:38;;;;;;;1.57;1.33;;;24.20;70.00;;;;;;4968376;28;20221;-66
2024/04/07 09:23:04;;;;;;;1.43;1.33;;;24.10;69.40;;;;;;4962891;28;20198;-66
2024/04/07 09:25:31;;;;;;;1.07;1.03;;;24.10;69.70;;;;;;4958595;28;20246;-66
2024/04/07 09:28:00;;;;;;;1.73;1.70;;;24.10;68.70;;;;;;4956917;28;20265;-66
2024/04/07 09:30:26;;;;;;;0.77;0.73;;;24.30;70.30;;;;;;4959819;28;20446;-66
2024/04/07 09:32:51;;;;;;;3.07;1.30;;;24.50;69.90;;;;;;4953694;28;20819;-66
2024/04/07 09:35:17;;;;;;;1.80;0.90;;;24.70;69.30;;;;;;4957053;28;20693;-64
2024/04/07 09:37:43;;;;;;;0.90;0.80;;;24.70;68.80;;;;;;4956997;28;20178;-64
2024/04/07 09:40:09;;;;;;;1.30;1.20;;;24.50;68.60;;;;;;4956948;28;20175;-65
2024/04/07 09:42:38;;;;;;;2.13;1.97;;;24.60;68.60;;;;;;4959674;28;20421;-65
2024/04/07 09:45:06;;;;;;;2.50;1.23;;;24.70;70.30;;;;;;4952432;28;20915;-65
2024/04/07 09:47:35;;;;;;;1.10;1.00;;;24.70;68.90;;;;;;4952192;28;20455;-66
2024/04/07 09:50:24;;;;;;;1.10;1.00;;;24.50;69.00;;;;;;4954070;28;20423;-66
2024/04/07 09:52:53;;;;;;;4.67;1.30;;;24.40;69.60;;;;;;4952719;28;20482;-64
2024/04/07 09:55:21;;;;;;;0.93;0.87;;;24.50;69.50;;;;;;4952505;28;20838;-65
2024/04/07 09:57:46;;;;;;;3.73;1.20;;;24.30;68.90;;;;;;4957269;28;20406;-66
2024/04/07 10:00:12;;;;;;;1.00;0.90;;;24.20;69.00;;;;;;4955878;28;21123;-65
2024/04/07 10:02:39;;;;;;;0.90;0.80;;;24.10;69.90;;;;;;4954088;28;20179;-66
2024/04/07 10:05:05;;;;;;;1.10;1.00;;;24.10;69.70;;;;;;4951566;28;20437;-65
2024/04/07 10:07:36;;;;;;;1.90;1.80;;;24.10;70.50;;;;;;4954582;28;20427;-65
2024/04/07 10:10:05;;;;;;;2.40;2.03;;;24.10;69.80;;;;;;4951762;28;20575;-65
2024/04/07 10:12:31;;;;;;;1.10;0.83;;;24.10;70.80;;;;;;4956677;28;20478;-66
2024/04/07 10:15:00;;;;;;;1.40;1.30;;;24.20;70.40;;;;;;4990354;23;20809;-87
2024/04/07 10:17:27;;;;;;;1.43;1.00;;;24.20;71.20;;;;;;4961456;28;20701;-88
2024/04/07 10:19:54;;;;;;;1.43;1.20;;;24.30;70.50;;;;;;4959911;28;20418;-87
2024/04/07 10:22:21;;;;;;;4.57;2.20;;;24.30;70.50;;;;;;4960055;28;20418;-87
2024/04/07 10:24:51;;;;;;;1.37;1.30;;;24.30;71.10;;;;;;4958376;28;20449;-87
2024/04/07 10:29:55;;;;;;;3.57;1.70;;;24.20;71.70;;;;;;4970997;23;20499;-66
2024/04/07 10:32:34;;;;;;;1.20;1.10;;;24.20;73.30;;;;;;4934235;28;20554;-66
2024/04/07 10:35:08;;;;;;;1.00;1.00;;;24.20;74.30;;;;;;4943402;28;20435;-65
2024/04/07 10:37:35;;;;;;;1.43;1.33;;;24.10;75.20;;;;;;4947723;28;20510;-66
2024/04/07 10:40:08;;;;;;;1.00;1.00;;;24.00;75.40;;;;;;4936121;28;20945;-67
2024/04/07 10:42:34;;;;;;;1.10;1.00;;;23.90;76.00;;;;;;4936665;28;20438;-70
2024/04/07 10:45:04;;;;;;;2.07;1.23;;;23.80;75.20;;;;;;4938959;28;20431;-66
2024/04/07 10:47:31;;;;;;;2.13;1.97;;;23.80;78.50;;;;;;4932001;28;20474;-66
2024/04/07 10:49:56;;;;;;;0.93;0.83;;;23.70;79.00;;;;;;4934791;28;20466;-66
2024/04/07 10:52:26;;;;;;;1.40;1.30;;;23.70;79.20;;;;;;4939767;28;20784;-67
2024/04/07 10:54:53;;;;;;;4.33;1.57;;;23.70;79.00;;;;;;4937232;28;20194;-65
2024/04/07 10:57:19;;;;;;;2.03;1.10;;;23.90;79.80;;;;;;4951585;28;20418;-70
2024/04/07 10:59:44;;;;;;;3.60;1.53;;;23.90;79.20;;;;;;4934450;28;20445;-67
2024/04/07 11:02:10;;;;;;;1.10;1.00;;;24.00;78.90;;;;;;4951632;28;20285;-66
2024/04/07 11:04:36;;;;;;;1.50;1.40;;;24.00;78.40;;;;;;4943182;28;20222;-68
2024/04/07 11:07:04;;;;;;;1.00;1.00;;;23.90;77.60;;;;;;4936908;28;20290;-66
2024/04/07 11:09:31;;;;;;;1.00;0.90;;;24.10;78.70;;;;;;4953469;28;20643;-67
2024/04/07 11:11:58;;;;;;;4.23;1.17;;;24.10;78.00;;;;;;4942514;28;20470;-70
2024/04/07 11:14:26;;;;;;;1.27;1.17;;;24.10;78.00;;;;;;4942542;28;20953;-70
2024/04/07 11:16:54;;;;;;;1.20;1.10;;;24.10;78.30;;;;;;4933603;28;20419;-65
2024/04/07 11:19:22;;;;;;;1.37;1.27;;;24.20;78.90;;;;;;4939467;28;20484;-66
2024/04/07 11:21:49;;;;;;;2.10;1.30;;;24.30;79.80;;;;;;4953952;28;20451;-66
2024/04/07 11:24:14;;;;;;;2.40;1.63;;;24.40;78.40;;;;;;4934127;28;20474;-66
2024/04/07 11:26:40;;;;;;;1.43;1.37;;;24.60;78.50;;;;;;4940197;28;20427;-66
2024/04/07 11:29:06;;;;;;;6.47;1.00;;;24.70;77.90;;;;;;4957532;28;20227;-66
2024/04/07 11:31:31;;;;;;;1.73;1.70;;;24.70;77.00;;;;;;4942537;28;20267;-67
2024/04/07 11:33:58;;;;;;;0.90;0.80;;;24.80;76.00;;;;;;4943089;28;20250;-67
2024/04/07 11:36:24;;;;;;;3.30;1.50;;;24.80;76.10;;;;;;4948548;28;20219;-67
2024/04/07 11:38:50;;;;;;;2.30;1.10;;;24.80;77.90;;;;;;4935448;28;20438;-67
2024/04/07 11:41:16;;;;;;;2.30;1.53;;;24.80;78.20;;;;;;4947620;28;20462;-68
2024/04/07 11:43:43;;;;;;;1.13;1.03;;;24.90;76.30;;;;;;4946243;28;20203;-66
2024/04/07 11:46:10;;;;;;;1.20;1.10;;;25.00;76.80;;;;;;4945597;28;20419;-65
2024/04/07 11:48:35;;;;;;;1.40;1.30;;;25.20;76.90;;;;;;4942329;28;20482;-66
2024/04/07 11:51:02;;;;;;;2.17;1.03;;;25.20;75.60;;;;;;4941105;28;20479;-65
2024/04/07 11:53:27;;;;;;;3.83;2.20;;;25.10;75.90;;;;;;4945466;28;20258;-66
2024/04/07 11:55:53;;;;;;;1.33;1.20;;;25.00;77.20;;;;;;4935329;28;20454;-66
2024/04/07 11:58:20;;;;;;;1.47;1.40;;;25.10;76.70;;;;;;4936734;28;20172;-65
2024/04/07 12:00:45;;;;;;;1.20;1.10;;;25.10;76.70;;;;;;4944742;28;20440;-67
2024/04/07 12:03:11;;;;;;;2.90;2.07;;;25.10;77.50;;;;;;4935398;28;20684;-66
2024/04/07 12:05:36;;;;;;;8.10;1.70;;;25.20;75.40;;;;;;4949401;28;20706;-66
2024/04/07 12:08:02;;;;;;;1.53;1.13;;;25.20;74.50;;;;;;4948224;28;20195;-66
2024/04/07 12:10:28;;;;;;;2.17;1.27;;;25.40;75.40;;;;;;4941776;28;20751;-65
2024/04/07 12:12:54;;;;;;;6.23;1.73;;;25.60;75.90;;;;;;4943373;28;20865;-66
2024/04/07 12:15:21;;;;;;;2.50;2.10;;;25.70;74.50;;;;;;4954442;28;20183;-66
2024/04/07 12:17:46;;;;;;;1.17;0.97;;;25.80;74.10;;;;;;4944605;28;20167;-65
2024/04/07 12:20:12;;;;;;;2.93;1.10;;;26.00;75.10;;;;;;4946304;28;20438;-66
2024/04/07 12:22:38;;;;;;;2.83;2.10;;;26.00;75.90;;;;;;4944144;28;20202;-65
2024/04/07 12:25:04;;;;;;;1.17;1.07;;;26.00;75.70;;;;;;4946102;28;20264;-65
2024/04/07 12:27:30;;;;;;;1.00;0.90;;;26.20;74.80;;;;;;4936825;28;20709;-65
2024/04/07 12:29:56;;;;;;;1.90;1.10;;;26.40;73.50;;;;;;4941641;28;20423;-65
2024/04/07 12:32:22;;;;;;;2.80;2.20;;;26.50;73.10;;;;;;4941545;28;20223;-66
2024/04/07 12:34:47;;;;;;;2.20;1.30;;;26.40;73.40;;;;;;4942655;28;20203;-66
2024/04/07 12:37:13;;;;;;;1.00;0.90;;;26.30;74.10;;;;;;4942004;28;20471;-66
2024/04/07 12:39:38;;;;;;;1.10;1.00;;;26.20;72.80;;;;;;4950706;28;20186;-67
2024/04/07 12:42:04;;;;;;;1.97;1.90;;;26.20;73.20;;;;;;4951348;28;20206;-66
2024/04/07 12:44:30;;;;;;;1.10;0.93;;;26.00;74.90;;;;;;4950114;28;20188;-65
2024/04/07 12:46:55;;;;;;;1.77;1.43;;;25.80;74.70;;;;;;4954099;28;20197;-66
2024/04/07 12:49:21;;;;;;;1.30;1.20;;;25.60;74.10;;;;;;4954716;28;20261;-65
2024/04/07 12:51:48;;;;;;;1.30;1.20;;;25.50;75.60;;;;;;4955114;28;20366;-65
2024/04/07 12:54:13;;;;;;;1.17;1.07;;;25.40;74.70;;;;;;4956290;28;20513;-67
2024/04/07 12:56:39;;;;;;;2.80;1.00;;;25.30;75.30;;;;;;4938770;28;20503;-66
2024/04/07 12:59:05;;;;;;;1.50;1.20;;;25.30;75.00;;;;;;4957689;28;20190;-65
2024/04/07 13:01:30;;;;;;;7.93;1.13;;;25.40;75.70;;;;;;4956168;28;20492;-66
2024/04/07 13:03:56;;;;;;;1.30;1.20;;;25.40;74.30;;;;;;4943206;28;20460;-66
2024/04/07 13:06:22;;;;;;;3.30;1.20;;;25.30;74.50;;;;;;4950472;28;20262;-65
2024/04/07 13:08:47;;;;;;;5.13;2.27;;;25.20;74.70;;;;;;4944507;28;20319;-65
2024/04/07 13:11:13;;;;;;;1.30;1.23;;;25.20;75.60;;;;;;4957553;28;20234;-66
2024/04/07 13:13:39;;;;;;;1.50;1.40;;;25.20;75.80;;;;;;4943403;28;20207;-65
2024/04/07 13:16:05;;;;;;;2.00;1.10;;;25.20;76.00;;;;;;4942196;28;20182;-65
2024/04/07 13:18:31;;;;;;;1.50;1.40;;;25.10;77.10;;;;;;4938224;28;20471;-65
2024/04/07 13:20:57;;;;;;;2.90;1.53;;;25.20;76.60;;;;;;4942769;28;20195;-65
2024/04/07 13:23:23;;;;;;;1.00;0.90;;;25.20;76.70;;;;;;4943209;28;20487;-65
2024/04/07 13:25:49;;;;;;;2.70;1.57;;;25.10;76.50;;;;;;4953409;28;20438;-65
2024/04/07 13:28:15;;;;;;;1.30;1.07;;;25.00;76.00;;;;;;4941345;28;20235;-65
2024/04/07 13:30:44;;;;;;;0.97;0.87;;;25.10;75.60;;;;;;4946202;28;20210;-65
2024/04/07 13:33:09;;;;;;;4.47;2.27;;;25.20;74.30;;;;;;4944630;28;20472;-65
2024/04/07 13:35:35;;;;;;;2.60;1.93;;;25.40;75.00;;;;;;4948765;28;20419;-65
2024/04/07 13:38:00;;;;;;;1.13;1.00;;;25.60;75.20;;;;;;4947130;28;20688;-65
2024/04/07 13:40:26;;;;;;;2.10;1.53;;;25.80;76.90;;;;;;4947601;28;20195;-65
2024/04/07 13:42:52;;;;;;;1.63;1.00;;;25.80;77.30;;;;;;4945028;28;20812;-65
2024/04/07 13:45:18;;;;;;;1.93;1.83;;;25.90;77.80;;;;;;4953018;28;20186;-65
2024/04/07 13:47:44;;;;;;;1.37;1.27;;;26.00;77.00;;;;;;4945049;28;20179;-65
2024/04/07 13:50:10;;;;;;;1.20;0.97;;;26.00;75.70;;;;;;4959574;28;20517;-65
2024/04/07 13:52:36;;;;;;;3.23;1.43;;;25.90;76.10;;;;;;4948589;28;20901;-65
2024/04/07 13:55:03;;;;;;;5.83;1.80;;;25.80;77.00;;;;;;4950442;28;20183;-65
2024/04/07 13:57:34;;;;;;;1.53;1.30;;;25.80;75.50;;;;;;4943053;28;20427;-65
2024/04/07 14:00:00;;;;;;;2.10;1.10;;;25.90;76.20;;;;;;4937181;28;20812;-65
2024/04/07 14:02:25;;;;;;;1.47;1.20;;;26.00;76.80;;;;;;4948792;28;20455;-66
2024/04/07 14:04:51;;;;;;;3.43;1.00;;;26.10;77.00;;;;;;4938857;28;20237;-65
2024/04/07 14:07:17;;;;;;;4.50;2.17;;;26.30;76.60;;;;;;4942281;28;20215;-65
2024/04/07 14:09:42;;;;;;;1.87;1.30;;;26.50;75.40;;;;;;4936326;28;20190;-65
2024/04/07 14:12:08;;;;;;;2.87;1.90;;;26.60;75.40;;;;;;4939423;28;20210;-65
2024/04/07 14:14:36;;;;;;;3.53;1.43;;;26.70;74.30;;;;;;4952975;28;20179;-65
2024/04/07 14:17:03;;;;;;;2.10;1.10;;;26.80;75.90;;;;;;4951352;28;20180;-65
2024/04/07 14:19:28;;;;;;;1.97;1.27;;;26.70;76.20;;;;;;4941808;28;20476;-65
2024/04/07 14:21:54;;;;;;;1.10;1.00;;;26.70;75.80;;;;;;4946633;28;21050;-65
2024/04/07 14:24:19;;;;;;;3.03;1.43;;;26.80;75.70;;;;;;4944933;28;20583;-65
2024/04/07 14:26:45;;;;;;;1.80;1.40;;;26.60;74.60;;;;;;4942913;28;20559;-65
2024/04/07 14:29:10;;;;;;;1.47;1.20;;;26.70;76.30;;;;;;4949769;28;20242;-65
2024/04/07 14:31:36;;;;;;;4.00;1.67;;;26.90;75.20;;;;;;4943080;28;20474;-65
2024/04/07 14:34:01;;;;;;;3.27;1.33;;;27.00;74.10;;;;;;4948563;28;20179;-65
2024/04/07 14:36:27;;;;;;;1.10;1.00;;;27.20;74.70;;;;;;4942003;28;20184;-65
2024/04/07 14:38:52;;;;;;;1.37;1.27;;;27.50;74.40;;;;;;4946591;28;20183;-65
2024/04/07 14:41:18;;;;;;;2.17;2.00;;;27.60;74.00;;;;;;4944355;28;20207;-66
2024/04/07 14:43:44;;;;;;;1.43;1.33;;;27.80;73.30;;;;;;4936855;28;20194;-66
2024/04/07 14:46:14;;;;;;;1.57;1.23;;;28.20;74.10;;;;;;4937770;28;20189;-66
2024/04/07 14:48:39;;;;;;;1.53;1.43;;;28.30;72.80;;;;;;4948579;28;20430;-66
2024/04/07 14:51:05;;;;;;;1.77;1.43;;;28.40;72.20;;;;;;4939843;28;20952;-66
2024/04/07 14:53:30;;;;;;;1.20;1.10;;;28.40;72.70;;;;;;4951262;28;20679;-66
2024/04/07 14:56:00;;;;;;;1.10;1.00;;;28.30;72.40;;;;;;4948025;28;20652;-66
2024/04/07 14:58:27;;;;;;;1.30;1.27;;;28.00;71.70;;;;;;4939837;28;20184;-65
2024/04/07 15:00:52;;;;;;;1.60;1.20;;;27.80;73.20;;;;;;4946614;28;20513;-66
2024/04/07 15:03:18;;;;;;;2.73;1.50;;;27.60;72.90;;;;;;4946971;28;20927;-66
2024/04/07 15:05:43;;;;;;;2.47;2.03;;;27.20;73.10;;;;;;4942823;28;20539;-66
2024/04/07 15:08:09;;;;;;;1.20;1.10;;;27.00;74.40;;;;;;4944523;28;20278;-66
2024/04/07 15:10:36;;;;;;;1.00;0.90;;;26.90;74.50;;;;;;4944303;28;20726;-66
2024/04/07 15:13:02;;;;;;;1.03;0.93;;;26.70;74.10;;;;;;4947122;28;20203;-66
2024/04/07 15:15:27;;;;;;;1.00;0.90;;;26.60;74.70;;;;;;4955765;28;20507;-66
2024/04/07 15:17:53;;;;;;;3.10;1.73;;;26.70;75.10;;;;;;4949356;28;20190;-65
2024/04/07 15:20:18;;;;;;;3.27;2.67;;;26.70;75.50;;;;;;4949339;28;20266;-66
2024/04/07 15:22:45;;;;;;;2.80;2.03;;;27.00;75.30;;;;;;4942916;28;20706;-66
2024/04/07 15:25:10;;;;;;;2.30;1.50;;;27.20;75.10;;;;;;4940389;28;20210;-65
2024/04/07 15:27:36;;;;;;;1.03;1.00;;;27.60;74.40;;;;;;4943256;28;20431;-66
2024/04/07 15:30:03;;;;;;;5.93;1.97;;;27.60;73.00;;;;;;4950630;28;20373;-66
2024/04/07 15:32:28;;;;;;;1.43;1.00;;;27.60;74.80;;;;;;4951227;28;20467;-66
2024/04/07 15:34:54;;;;;;;2.07;1.47;;;27.70;74.80;;;;;;4956632;28;20433;-66
2024/04/07 15:37:21;;;;;;;4.03;1.50;;;27.60;74.40;;;;;;4938422;28;20188;-66
2024/04/07 15:39:47;;;;;;;1.03;1.00;;;27.00;74.30;;;;;;4948071;28;20203;-66
2024/04/07 15:42:12;;;;;;;1.53;1.47;;;26.60;74.90;;;;;;4943208;28;20430;-66
2024/04/07 15:44:38;;;;;;;1.20;1.10;;;26.30;76.20;;;;;;4951403;28;20670;-66
2024/04/07 15:47:04;;;;;;;2.63;1.60;;;26.00;77.00;;;;;;4953342;28;20206;-66
2024/04/07 15:49:30;;;;;;;0.97;0.87;;;25.80;76.60;;;;;;4946011;28;20558;-65
2024/04/07 15:51:57;;;;;;;1.73;1.20;;;25.70;77.80;;;;;;4948708;28;20561;-65
2024/04/07 15:54:22;;;;;;;1.10;0.90;;;25.70;77.60;;;;;;4954191;28;20434;-65
2024/04/07 15:56:48;;;;;;;1.27;1.17;;;25.70;77.40;;;;;;4944429;28;20438;-66
2024/04/07 15:59:13;;;;;;;8.30;1.20;;;25.60;77.10;;;;;;4949930;28;20183;-66
2024/04/07 16:01:39;;;;;;;2.30;1.17;;;25.60;76.90;;;;;;4951231;28;20765;-66
2024/04/07 16:04:05;;;;;;;1.10;1.00;;;25.60;76.70;;;;;;4951765;28;20207;-66
2024/04/07 16:06:31;;;;;;;1.10;1.00;;;25.70;77.40;;;;;;4950085;28;20258;-66
2024/04/07 16:08:56;;;;;;;1.33;1.07;;;25.50;77.30;;;;;;4946062;28;20551;-66
2024/04/07 16:11:22;;;;;;;1.80;1.70;;;25.50;77.30;;;;;;4947226;28;20578;-66
2024/04/07 16:13:50;;;;;;;2.70;1.43;;;25.30;77.20;;;;;;4941819;28;20215;-66
2024/04/07 16:16:17;;;;;;;1.50;1.23;;;25.20;78.30;;;;;;4943357;28;20219;-66
2024/04/07 16:18:43;;;;;;;1.03;0.93;;;25.00;78.40;;;;;;4952097;28;20423;-66
2024/04/07 16:21:08;;;;;;;1.57;1.43;;;24.90;79.20;;;;;;4948840;28;20868;-66
2024/04/07 16:23:34;;;;;;;1.27;1.20;;;24.90;78.90;;;;;;4954437;28;20205;-66
2024/04/07 16:25:59;;;;;;;1.00;0.90;;;24.70;79.50;;;;;;4941318;28;20195;-66
2024/04/07 16:28:25;;;;;;;2.83;1.60;;;24.70;79.00;;;;;;4947696;28;20871;-66
2024/04/07 16:31:06;;;;;;;1.67;1.30;;;24.60;79.20;;;;;;4951044;28;20672;-66
2024/04/07 16:33:31;;;;;;;1.20;1.10;;;24.60;79.50;;;;;;4951601;28;20359;-66
2024/04/07 16:35:57;;;;;;;1.47;1.00;;;24.40;80.00;;;;;;4953233;28;20935;-68
2024/04/07 16:38:24;;;;;;;10.43;1.80;;;24.30;80.90;;;;;;4960754;28;20186;-66
2024/04/07 16:40:54;;;;;;;1.47;1.37;;;24.20;80.40;;;;;;4952056;28;20281;-68
2024/04/07 16:43:20;;;;;;;2.87;1.10;;;24.00;81.20;;;;;;4952196;28;20489;-67
2024/04/07 16:45:45;;;;;;;3.33;1.10;;;23.90;81.20;;;;;;4951214;28;20973;-66
2024/04/07 16:48:12;;;;;;;2.47;1.43;;;23.80;81.40;;;;;;4959675;28;20199;-66